WZZ9ZZ EBCI-LBWN
Flight info
| Callsign | WZZ9ZZ |
|---|---|
| Flight time | N/A |
| Altitude | 37000 |
| Route | SOPOK Y863 ROPUV L607 EMGOD DCT BOMBI DCT DETEV DCT DINKU DCT ESEGA/N0447F350 DCT SASAL/N0446F370 DCT INVED DCT RASUB DCT BULEN L744 EXIGA |
| Aircraft | A21N/M-SDE3FGHIRWY/LB1 |
Departure
| Time | 2026-05-06 16:46 |
|---|---|
| Airport | Brussels South Charleroi Airport (EBCI) |
Arrival
| Time | N/A |
|---|---|
| Airport | Varna Airport (LBWN) |
| Time | Latitude | Longitude | Altitude | Speed | Heading |
|---|---|---|---|---|---|
| 2026-05-06 16:10 | 50.46838 | 4.46986 | 573 ft | 0 kts | 335° |
| 2026-05-06 16:35 | 50.46837 | 4.46986 | 573 ft | 0 kts | 335° |
| 2026-05-06 16:35 | 50.46825 | 4.46995 | 573 ft | 2 kts | 335° |
| 2026-05-06 16:35 | 50.46811 | 4.47005 | 573 ft | 2 kts | 334° |
| 2026-05-06 16:36 | 50.46796 | 4.47009 | 573 ft | 2 kts | 12° |
| 2026-05-06 16:36 | 50.46783 | 4.46999 | 573 ft | 2 kts | 43° |
| 2026-05-06 16:36 | 50.46777 | 4.46987 | 573 ft | 0 kts | 64° |
| 2026-05-06 16:36 | 50.46774 | 4.46977 | 574 ft | 0 kts | 66° |
| 2026-05-06 16:37 | 50.46773 | 4.46977 | 574 ft | 0 kts | 66° |
| 2026-05-06 16:40 | 50.46776 | 4.46986 | 573 ft | 3 kts | 66° |
| 2026-05-06 16:40 | 50.46796 | 4.47056 | 572 ft | 9 kts | 66° |
| 2026-05-06 16:40 | 50.46829 | 4.47175 | 569 ft | 13 kts | 66° |
| 2026-05-06 16:40 | 50.46833 | 4.47322 | 563 ft | 16 kts | 131° |
| 2026-05-06 16:41 | 50.46736 | 4.47397 | 564 ft | 13 kts | 156° |
| 2026-05-06 16:41 | 50.46706 | 4.47416 | 564 ft | 0 kts | 159° |
| 2026-05-06 16:44 | 50.46705 | 4.47416 | 564 ft | 0 kts | 159° |
| 2026-05-06 16:44 | 50.46695 | 4.47423 | 564 ft | 3 kts | 159° |
| 2026-05-06 16:44 | 50.46661 | 4.47443 | 564 ft | 6 kts | 159° |
| 2026-05-06 16:44 | 50.46619 | 4.47427 | 566 ft | 6 kts | 223° |
| 2026-05-06 16:45 | 50.46591 | 4.47365 | 568 ft | 8 kts | 243° |
| 2026-05-06 16:45 | 50.46550 | 4.47230 | 570 ft | 32 kts | 246° |
| 2026-05-06 16:45 | 50.46357 | 4.46561 | 585 ft | 99 kts | 245° |
| 2026-05-06 16:45 | 50.45987 | 4.45288 | 603 ft | 155 kts | 245° |
| 2026-05-06 16:46 | 50.45496 | 4.43596 | 874 ft | 177 kts | 247° |
| 2026-05-06 16:46 | 50.44999 | 4.41860 | 1498 ft | 178 kts | 247° |
| 2026-05-06 16:46 | 50.44476 | 4.40100 | 2120 ft | 182 kts | 248° |
| 2026-05-06 16:46 | 50.43954 | 4.38287 | 2655 ft | 191 kts | 249° |
| 2026-05-06 16:47 | 50.43393 | 4.36319 | 3012 ft | 204 kts | 249° |
| 2026-05-06 16:47 | 50.42794 | 4.34226 | 3313 ft | 219 kts | 249° |
| 2026-05-06 16:47 | 50.42143 | 4.31972 | 3605 ft | 236 kts | 248° |
| 2026-05-06 16:47 | 50.41434 | 4.29530 | 3958 ft | 252 kts | 248° |
| 2026-05-06 16:48 | 50.40587 | 4.27163 | 4735 ft | 253 kts | 229° |
| 2026-05-06 16:48 | 50.39098 | 4.25755 | 5500 ft | 254 kts | 191° |
| 2026-05-06 16:48 | 50.37373 | 4.25909 | 6209 ft | 252 kts | 156° |
| 2026-05-06 16:48 | 50.35939 | 4.27391 | 6880 ft | 251 kts | 136° |
| 2026-05-06 16:49 | 50.34620 | 4.29247 | 7486 ft | 257 kts | 136° |
| 2026-05-06 16:49 | 50.33331 | 4.31220 | 8061 ft | 263 kts | 124° |
| 2026-05-06 16:49 | 50.32645 | 4.33863 | 8416 ft | 272 kts | 92° |
| 2026-05-06 16:49 | 50.32886 | 4.36808 | 8941 ft | 277 kts | 72° |
| 2026-05-06 16:50 | 50.33384 | 4.39720 | 9579 ft | 283 kts | 73° |
| 2026-05-06 16:50 | 50.33876 | 4.42726 | 10214 ft | 288 kts | 74° |
| 2026-05-06 16:50 | 50.34367 | 4.45828 | 10592 ft | 303 kts | 74° |
| 2026-05-06 16:50 | 50.34702 | 4.47980 | 10792 ft | 314 kts | 74° |
| 2026-05-06 16:51 | 50.35400 | 4.52524 | 11192 ft | 334 kts | 75° |
| 2026-05-06 16:51 | 50.35946 | 4.56119 | 11723 ft | 342 kts | 75° |
| 2026-05-06 16:51 | 50.36492 | 4.59737 | 12352 ft | 345 kts | 75° |
| 2026-05-06 16:51 | 50.37046 | 4.63421 | 12982 ft | 349 kts | 75° |
| 2026-05-06 16:52 | 50.37597 | 4.67099 | 13577 ft | 352 kts | 75° |
| 2026-05-06 16:52 | 50.38153 | 4.70828 | 14153 ft | 355 kts | 76° |
| 2026-05-06 16:52 | 50.38718 | 4.74613 | 14725 ft | 359 kts | 75° |
| 2026-05-06 16:52 | 50.39290 | 4.78452 | 15294 ft | 362 kts | 76° |
| 2026-05-06 16:53 | 50.39859 | 4.82287 | 15828 ft | 366 kts | 76° |
| 2026-05-06 16:53 | 50.40435 | 4.86167 | 16362 ft | 369 kts | 76° |
| 2026-05-06 16:53 | 50.41013 | 4.90069 | 16913 ft | 372 kts | 76° |
| 2026-05-06 16:53 | 50.41603 | 4.94063 | 17434 ft | 375 kts | 76° |
| 2026-05-06 16:54 | 50.42185 | 4.98018 | 17926 ft | 378 kts | 76° |
| 2026-05-06 16:54 | 50.42777 | 5.02044 | 18408 ft | 381 kts | 76° |
| 2026-05-06 16:54 | 50.43377 | 5.06131 | 18886 ft | 384 kts | 76° |
| 2026-05-06 16:54 | 50.43974 | 5.10211 | 19350 ft | 387 kts | 76° |
| 2026-05-06 16:55 | 50.44575 | 5.14328 | 19779 ft | 390 kts | 76° |
| 2026-05-06 16:55 | 50.45171 | 5.18429 | 20196 ft | 393 kts | 76° |
| 2026-05-06 16:55 | 50.45781 | 5.22629 | 20596 ft | 396 kts | 77° |
| 2026-05-06 16:55 | 50.46390 | 5.26837 | 21005 ft | 400 kts | 77° |
| 2026-05-06 16:56 | 50.47009 | 5.31132 | 21422 ft | 403 kts | 77° |
| 2026-05-06 16:56 | 50.47600 | 5.35408 | 21812 ft | 405 kts | 80° |
| 2026-05-06 16:56 | 50.47610 | 5.39809 | 22145 ft | 409 kts | 100° |
| 2026-05-06 16:56 | 50.46650 | 5.44012 | 22536 ft | 409 kts | 120° |
| 2026-05-06 16:57 | 50.44893 | 5.47469 | 22933 ft | 408 kts | 136° |
| 2026-05-06 16:57 | 50.42867 | 5.50544 | 23319 ft | 410 kts | 137° |
| 2026-05-06 16:57 | 50.40801 | 5.53630 | 23687 ft | 413 kts | 137° |
| 2026-05-06 16:57 | 50.38724 | 5.56759 | 23829 ft | 414 kts | 137° |
| 2026-05-06 16:58 | 50.36680 | 5.59869 | 23835 ft | 413 kts | 137° |
| 2026-05-06 16:58 | 50.34622 | 5.63017 | 23838 ft | 413 kts | 136° |
| 2026-05-06 16:58 | 50.32563 | 5.66179 | 23840 ft | 414 kts | 137° |
| 2026-05-06 16:58 | 50.30510 | 5.69336 | 23835 ft | 414 kts | 137° |
| 2026-05-06 16:59 | 50.28452 | 5.72495 | 23836 ft | 415 kts | 137° |
| 2026-05-06 16:59 | 50.26547 | 5.75837 | 23823 ft | 417 kts | 128° |
| 2026-05-06 16:59 | 50.25066 | 5.79686 | 23819 ft | 419 kts | 117° |
| 2026-05-06 16:59 | 50.24060 | 5.83992 | 23825 ft | 420 kts | 107° |
| 2026-05-06 17:00 | 50.23312 | 5.88398 | 23817 ft | 420 kts | 105° |
| 2026-05-06 17:00 | 50.22608 | 5.92791 | 23820 ft | 420 kts | 105° |
| 2026-05-06 17:00 | 50.21900 | 5.97187 | 23818 ft | 421 kts | 105° |
| 2026-05-06 17:00 | 50.21177 | 6.01568 | 23815 ft | 421 kts | 106° |
| 2026-05-06 17:01 | 50.20433 | 6.05982 | 23814 ft | 421 kts | 106° |
| 2026-05-06 17:01 | 50.19686 | 6.10369 | 23815 ft | 420 kts | 106° |
| 2026-05-06 17:01 | 50.18956 | 6.14826 | 23812 ft | 421 kts | 103° |
| 2026-05-06 17:01 | 50.18523 | 6.19263 | 23812 ft | 422 kts | 96° |
| 2026-05-06 17:02 | 50.18454 | 6.23822 | 23813 ft | 423 kts | 88° |
| 2026-05-06 17:02 | 50.18683 | 6.28387 | 23813 ft | 423 kts | 85° |
| 2026-05-06 17:02 | 50.18986 | 6.32928 | 23813 ft | 423 kts | 84° |
| 2026-05-06 17:02 | 50.19297 | 6.37481 | 23809 ft | 422 kts | 84° |
| 2026-05-06 17:03 | 50.19598 | 6.42048 | 23925 ft | 426 kts | 85° |
| 2026-05-06 17:03 | 50.19890 | 6.46594 | 24359 ft | 426 kts | 85° |
| 2026-05-06 17:03 | 50.20178 | 6.51209 | 24811 ft | 426 kts | 85° |
| 2026-05-06 17:03 | 50.20458 | 6.55792 | 25196 ft | 428 kts | 85° |
| 2026-05-06 17:04 | 50.20735 | 6.60388 | 25552 ft | 429 kts | 85° |
| 2026-05-06 17:04 | 50.21012 | 6.65006 | 25892 ft | 431 kts | 85° |
| 2026-05-06 17:04 | 50.21292 | 6.69687 | 26231 ft | 433 kts | 86° |
| 2026-05-06 17:04 | 50.21568 | 6.74336 | 26560 ft | 434 kts | 86° |
| 2026-05-06 17:05 | 50.21841 | 6.79045 | 26901 ft | 435 kts | 87° |
| 2026-05-06 17:05 | 50.21989 | 6.83721 | 27211 ft | 436 kts | 90° |
| 2026-05-06 17:05 | 50.21962 | 6.88445 | 27528 ft | 437 kts | 94° |
| 2026-05-06 17:05 | 50.21769 | 6.93137 | 27834 ft | 438 kts | 96° |
| 2026-05-06 17:06 | 50.21521 | 6.97880 | 28143 ft | 439 kts | 96° |
| 2026-05-06 17:06 | 50.21266 | 7.02623 | 28456 ft | 440 kts | 96° |
| 2026-05-06 17:06 | 50.21011 | 7.07367 | 28747 ft | 441 kts | 96° |
| 2026-05-06 17:06 | 50.20755 | 7.12161 | 29002 ft | 444 kts | 96° |
| 2026-05-06 17:07 | 50.20502 | 7.16893 | 29253 ft | 446 kts | 97° |
| 2026-05-06 17:07 | 50.20240 | 7.21757 | 29519 ft | 447 kts | 97° |
| 2026-05-06 17:07 | 50.19980 | 7.26533 | 29790 ft | 448 kts | 97° |
| 2026-05-06 17:07 | 50.19712 | 7.31387 | 30152 ft | 448 kts | 97° |
| 2026-05-06 17:08 | 50.19345 | 7.36171 | 30530 ft | 446 kts | 99° |
| 2026-05-06 17:08 | 50.18924 | 7.40938 | 30908 ft | 444 kts | 100° |
| 2026-05-06 17:08 | 50.18498 | 7.45661 | 31210 ft | 444 kts | 100° |
| 2026-05-06 17:08 | 50.18062 | 7.50457 | 31484 ft | 444 kts | 100° |
| 2026-05-06 17:09 | 50.17632 | 7.55190 | 31771 ft | 444 kts | 100° |
| 2026-05-06 17:09 | 50.17204 | 7.59897 | 32028 ft | 444 kts | 100° |
| 2026-05-06 17:09 | 50.16766 | 7.64700 | 32293 ft | 444 kts | 100° |
| 2026-05-06 17:09 | 50.16335 | 7.69408 | 32549 ft | 444 kts | 101° |
| 2026-05-06 17:10 | 50.15899 | 7.74167 | 32768 ft | 443 kts | 101° |
| 2026-05-06 17:10 | 50.15464 | 7.78908 | 32983 ft | 443 kts | 101° |
| 2026-05-06 17:10 | 50.15026 | 7.83632 | 33191 ft | 443 kts | 101° |
| 2026-05-06 17:10 | 50.14588 | 7.88346 | 33388 ft | 444 kts | 101° |
| 2026-05-06 17:11 | 50.14142 | 7.93121 | 33577 ft | 444 kts | 101° |
| 2026-05-06 17:11 | 50.13696 | 7.97855 | 33766 ft | 445 kts | 101° |
| 2026-05-06 17:11 | 50.13245 | 8.02630 | 33968 ft | 444 kts | 101° |
| 2026-05-06 17:11 | 50.12796 | 8.07365 | 34174 ft | 444 kts | 101° |
| 2026-05-06 17:12 | 50.12347 | 8.12073 | 34369 ft | 444 kts | 101° |
| 2026-05-06 17:12 | 50.11890 | 8.16841 | 34586 ft | 443 kts | 101° |
| 2026-05-06 17:12 | 50.11439 | 8.21539 | 34791 ft | 443 kts | 102° |
| 2026-05-06 17:12 | 50.10981 | 8.26294 | 34991 ft | 443 kts | 102° |
| 2026-05-06 17:13 | 50.10520 | 8.31047 | 35162 ft | 444 kts | 102° |
| 2026-05-06 17:13 | 50.10058 | 8.35782 | 35311 ft | 445 kts | 102° |
| 2026-05-06 17:13 | 50.09596 | 8.40498 | 35450 ft | 447 kts | 102° |
| 2026-05-06 17:13 | 50.09128 | 8.45274 | 35597 ft | 448 kts | 102° |
| 2026-05-06 17:14 | 50.08651 | 8.50114 | 35745 ft | 448 kts | 102° |
| 2026-05-06 17:14 | 50.08182 | 8.54855 | 35886 ft | 449 kts | 102° |
| 2026-05-06 17:14 | 50.07707 | 8.59648 | 36014 ft | 450 kts | 102° |
| 2026-05-06 17:14 | 50.07223 | 8.64487 | 36136 ft | 451 kts | 102° |
| 2026-05-06 17:15 | 50.06731 | 8.69268 | 36259 ft | 452 kts | 104° |
| 2026-05-06 17:15 | 50.06100 | 8.74025 | 36381 ft | 451 kts | 107° |
| 2026-05-06 17:15 | 50.05296 | 8.78702 | 36506 ft | 450 kts | 110° |
| 2026-05-06 17:15 | 50.04314 | 8.83320 | 36624 ft | 449 kts | 114° |
| 2026-05-06 17:16 | 50.03166 | 8.87824 | 36721 ft | 448 kts | 117° |
| 2026-05-06 17:16 | 50.00507 | 8.96551 | 36764 ft | 449 kts | 120° |
| 2026-05-06 17:17 | 49.97789 | 9.05233 | 36769 ft | 449 kts | 119° |
| 2026-05-06 17:17 | 49.95054 | 9.13972 | 36768 ft | 450 kts | 120° |
| 2026-05-06 17:18 | 49.92325 | 9.22673 | 36766 ft | 450 kts | 120° |
| 2026-05-06 17:18 | 49.89582 | 9.31394 | 36766 ft | 450 kts | 120° |
| 2026-05-06 17:19 | 49.86826 | 9.40034 | 36762 ft | 449 kts | 120° |
| 2026-05-06 17:19 | 49.83795 | 9.48420 | 36758 ft | 445 kts | 127° |
| 2026-05-06 17:20 | 49.80184 | 9.56156 | 36755 ft | 442 kts | 133° |
| 2026-05-06 17:20 | 49.76079 | 9.63102 | 36758 ft | 438 kts | 140° |
| 2026-05-06 17:21 | 49.71670 | 9.69517 | 36765 ft | 437 kts | 141° |
| 2026-05-06 17:21 | 49.67258 | 9.75928 | 36765 ft | 437 kts | 141° |
| 2026-05-06 17:22 | 49.62833 | 9.82327 | 36769 ft | 437 kts | 141° |
| 2026-05-06 17:22 | 49.58421 | 9.88683 | 36775 ft | 437 kts | 141° |
| 2026-05-06 17:23 | 49.53988 | 9.95051 | 36779 ft | 436 kts | 141° |
| 2026-05-06 17:23 | 49.49556 | 10.01404 | 36782 ft | 435 kts | 141° |
| 2026-05-06 17:24 | 49.45141 | 10.07714 | 36892 ft | 436 kts | 142° |
| 2026-05-06 17:24 | 49.40711 | 10.14031 | 36640 ft | 435 kts | 141° |
| 2026-05-06 17:25 | 49.36277 | 10.20339 | 36758 ft | 438 kts | 141° |
| 2026-05-06 17:25 | 49.31811 | 10.26673 | 36785 ft | 437 kts | 142° |
| 2026-05-06 17:26 | 49.27478 | 10.33209 | 36792 ft | 440 kts | 137° |
| 2026-05-06 17:26 | 49.23647 | 10.40435 | 36793 ft | 443 kts | 130° |
| 2026-05-06 17:27 | 49.20351 | 10.48441 | 36791 ft | 449 kts | 123° |
| 2026-05-06 17:27 | 49.17570 | 10.56947 | 36790 ft | 451 kts | 121° |
| 2026-05-06 17:28 | 49.14829 | 10.65543 | 36785 ft | 450 kts | 121° |
| 2026-05-06 17:28 | 49.12087 | 10.74125 | 36788 ft | 451 kts | 121° |
| 2026-05-06 17:29 | 49.09331 | 10.82698 | 36781 ft | 450 kts | 122° |
| 2026-05-06 17:29 | 49.06578 | 10.91206 | 36787 ft | 450 kts | 122° |
| 2026-05-06 17:30 | 49.03801 | 10.99758 | 36789 ft | 450 kts | 122° |
| 2026-05-06 17:30 | 49.01031 | 11.08259 | 36774 ft | 449 kts | 122° |
| 2026-05-06 17:31 | 48.98255 | 11.16747 | 36785 ft | 449 kts | 122° |
| 2026-05-06 17:31 | 48.95475 | 11.25215 | 36778 ft | 448 kts | 122° |
| 2026-05-06 17:32 | 48.92701 | 11.33639 | 36782 ft | 447 kts | 122° |
| 2026-05-06 17:32 | 48.89932 | 11.42026 | 36782 ft | 445 kts | 122° |
| 2026-05-06 17:33 | 48.87130 | 11.50404 | 36793 ft | 445 kts | 122° |
| 2026-05-06 17:33 | 48.84334 | 11.58752 | 36794 ft | 444 kts | 122° |
| 2026-05-06 17:34 | 48.81546 | 11.67092 | 36775 ft | 444 kts | 123° |
| 2026-05-06 17:34 | 48.78770 | 11.75414 | 36777 ft | 442 kts | 123° |
| 2026-05-06 17:35 | 48.75996 | 11.83693 | 36779 ft | 442 kts | 123° |
| 2026-05-06 17:35 | 48.73251 | 11.91848 | 36798 ft | 441 kts | 123° |
| 2026-05-06 17:36 | 48.69065 | 12.04228 | 36773 ft | 442 kts | 123° |
| 2026-05-06 17:36 | 48.66249 | 12.12518 | 36771 ft | 444 kts | 123° |
| 2026-05-06 17:37 | 48.63443 | 12.20752 | 36772 ft | 445 kts | 123° |
| 2026-05-06 17:37 | 48.60610 | 12.29048 | 36773 ft | 445 kts | 123° |
| 2026-05-06 17:38 | 48.57750 | 12.37391 | 36769 ft | 448 kts | 123° |
| 2026-05-06 17:38 | 48.54886 | 12.45716 | 36774 ft | 449 kts | 123° |
| 2026-05-06 17:39 | 48.52020 | 12.54026 | 36785 ft | 450 kts | 123° |
| 2026-05-06 17:39 | 48.49122 | 12.62399 | 36757 ft | 452 kts | 123° |
| 2026-05-06 17:40 | 48.46212 | 12.70799 | 36757 ft | 453 kts | 124° |
| 2026-05-06 17:40 | 48.43296 | 12.79198 | 36756 ft | 453 kts | 124° |
| 2026-05-06 17:41 | 48.40395 | 12.87569 | 36744 ft | 456 kts | 121° |
| 2026-05-06 17:41 | 48.37994 | 12.96471 | 36740 ft | 461 kts | 116° |
| 2026-05-06 17:42 | 48.35726 | 13.05485 | 36735 ft | 462 kts | 117° |
| 2026-05-06 17:42 | 48.33445 | 13.14447 | 36737 ft | 463 kts | 117° |
| 2026-05-06 17:43 | 48.31130 | 13.23465 | 36738 ft | 462 kts | 117° |
| 2026-05-06 17:43 | 48.28819 | 13.32407 | 36733 ft | 463 kts | 117° |
| 2026-05-06 17:44 | 48.26493 | 13.41371 | 36719 ft | 464 kts | 117° |
| 2026-05-06 17:44 | 48.24141 | 13.50391 | 36726 ft | 463 kts | 117° |
| 2026-05-06 17:45 | 48.21801 | 13.59321 | 36720 ft | 463 kts | 117° |
| 2026-05-06 17:45 | 48.19452 | 13.68269 | 36702 ft | 463 kts | 117° |
| 2026-05-06 17:46 | 48.17110 | 13.77180 | 36701 ft | 461 kts | 118° |
| 2026-05-06 17:46 | 48.14741 | 13.86145 | 36694 ft | 462 kts | 118° |
| 2026-05-06 17:47 | 48.12384 | 13.95017 | 36702 ft | 462 kts | 118° |
| 2026-05-06 17:47 | 48.10008 | 14.03925 | 36702 ft | 462 kts | 118° |
| 2026-05-06 17:48 | 48.07622 | 14.12835 | 36692 ft | 463 kts | 118° |
| 2026-05-06 17:48 | 48.05236 | 14.21709 | 36685 ft | 463 kts | 118° |
| 2026-05-06 17:49 | 48.02845 | 14.30565 | 36694 ft | 463 kts | 118° |
| 2026-05-06 17:49 | 48.00433 | 14.39466 | 36695 ft | 463 kts | 118° |
| 2026-05-06 17:50 | 47.98019 | 14.48340 | 36689 ft | 464 kts | 118° |
| 2026-05-06 17:50 | 47.95579 | 14.57276 | 36691 ft | 464 kts | 118° |
| 2026-05-06 17:51 | 47.93153 | 14.66131 | 36696 ft | 465 kts | 118° |
| 2026-05-06 17:51 | 47.90723 | 14.75002 | 36720 ft | 464 kts | 118° |
| 2026-05-06 17:52 | 47.88268 | 14.83869 | 36723 ft | 464 kts | 118° |
| 2026-05-06 17:52 | 47.85791 | 14.92725 | 36723 ft | 465 kts | 118° |
| 2026-05-06 17:53 | 47.83324 | 15.01558 | 36715 ft | 465 kts | 118° |
| 2026-05-06 17:53 | 47.80844 | 15.10416 | 36735 ft | 465 kts | 118° |